Hardy, Virginia
Current Conditions -  °F | °C
As of 8:54 PM on Sunday 25 Jan 2015 (Local Time) from KROA Reporting Station
Scattered Clouds Scattered Clouds  
Wind Chill: 41°   Ceiling: Unl
Heat Index: 45°   Visibility: 10mi
Dew Point: 30°   Wind: 7mph
Humidity: 56%   Direction: 110°ESE
Pressure: 29.79"   Gusts: NA
Location:  37.17°N, 79.73°W
Report Text: KROA 260154Z 11006KT 10SM SCT110 07/M01 A2979 RMK AO2 SLP090 T00721011
Loading
Personal Weather Stations






























Interactive Weather Map New forecast layout! Learn more

10-Day Weather Forecast

Advertisements
Track Severe Weather on mobile